sensor_id;sensor_type;location;lat;lon;timestamp;P1;durP1;ratioP1;P2;durP2;ratioP2
77276;SDS011;66330;52.166;9.978;2023-05-02T00:00:47;8.33;;;7.00;;
77276;SDS011;66330;52.166;9.978;2023-05-02T00:03:13;6.90;;;6.30;;
77276;SDS011;66330;52.166;9.978;2023-05-02T00:05:38;7.07;;;6.33;;
77276;SDS011;66330;52.166;9.978;2023-05-02T00:08:05;8.40;;;6.43;;
77276;SDS011;66330;52.166;9.978;2023-05-02T00:10:30;6.07;;;5.50;;
77276;SDS011;66330;52.166;9.978;2023-05-02T00:12:56;6.17;;;5.60;;
77276;SDS011;66330;52.166;9.978;2023-05-02T00:15:21;5.87;;;5.30;;
77276;SDS011;66330;52.166;9.978;2023-05-02T00:17:47;6.17;;;5.57;;
77276;SDS011;66330;52.166;9.978;2023-05-02T00:20:13;5.17;;;4.70;;
77276;SDS011;66330;52.166;9.978;2023-05-02T00:22:38;7.13;;;5.60;;
77276;SDS011;66330;52.166;9.978;2023-05-02T00:25:04;6.40;;;5.80;;
77276;SDS011;66330;52.166;9.978;2023-05-02T00:27:30;7.23;;;6.57;;
77276;SDS011;66330;52.166;9.978;2023-05-02T00:29:57;5.70;;;5.20;;
77276;SDS011;66330;52.166;9.978;2023-05-02T00:32:24;6.90;;;5.20;;
77276;SDS011;66330;52.166;9.978;2023-05-02T00:34:49;6.10;;;5.50;;
77276;SDS011;66330;52.166;9.978;2023-05-02T00:37:15;6.63;;;5.63;;
77276;SDS011;66330;52.166;9.978;2023-05-02T00:39:40;6.43;;;5.60;;
77276;SDS011;66330;52.166;9.978;2023-05-02T00:42:06;7.30;;;6.60;;
77276;SDS011;66330;52.166;9.978;2023-05-02T00:44:32;6.17;;;5.20;;
77276;SDS011;66330;52.166;9.978;2023-05-02T00:46:57;6.70;;;6.00;;
77276;SDS011;66330;52.166;9.978;2023-05-02T00:49:25;6.40;;;5.80;;
77276;SDS011;66330;52.166;9.978;2023-05-02T00:51:50;6.47;;;5.67;;
77276;SDS011;66330;52.166;9.978;2023-05-02T00:54:17;6.07;;;5.40;;
77276;SDS011;66330;52.166;9.978;2023-05-02T00:56:43;6.93;;;5.90;;
77276;SDS011;66330;52.166;9.978;2023-05-02T00:59:09;6.10;;;5.50;;
77276;SDS011;66330;52.166;9.978;2023-05-02T01:01:38;6.20;;;5.60;;
77276;SDS011;66330;52.166;9.978;2023-05-02T01:04:25;13.27;;;6.00;;
77276;SDS011;66330;52.166;9.978;2023-05-02T01:07:06;5.23;;;4.73;;
77276;SDS011;66330;52.166;9.978;2023-05-02T01:13:13;6.93;;;5.53;;
77276;SDS011;66330;52.166;9.978;2023-05-02T01:15:45;5.30;;;4.80;;
77276;SDS011;66330;52.166;9.978;2023-05-02T01:18:12;5.50;;;5.10;;
77276;SDS011;66330;52.166;9.978;2023-05-02T01:20:41;6.90;;;5.10;;
77276;SDS011;66330;52.166;9.978;2023-05-02T01:23:13;5.13;;;4.50;;
77276;SDS011;66330;52.166;9.978;2023-05-02T01:31:19;6.43;;;5.20;;
77276;SDS011;66330;52.166;9.978;2023-05-02T01:33:47;5.80;;;5.30;;
77276;SDS011;66330;52.166;9.978;2023-05-02T01:36:13;6.50;;;5.53;;
77276;SDS011;66330;52.166;9.978;2023-05-02T01:38:41;6.23;;;5.63;;
77276;SDS011;66330;52.166;9.978;2023-05-02T01:41:08;7.30;;;5.80;;
77276;SDS011;66330;52.166;9.978;2023-05-02T01:43:35;6.60;;;5.63;;
77276;SDS011;66330;52.166;9.978;2023-05-02T01:46:03;6.17;;;5.57;;
77276;SDS011;66330;52.166;9.978;2023-05-02T01:48:31;6.27;;;5.67;;
77276;SDS011;66330;52.166;9.978;2023-05-02T01:50:57;5.77;;;5.10;;
77276;SDS011;66330;52.166;9.978;2023-05-02T01:53:24;7.07;;;6.37;;
77276;SDS011;66330;52.166;9.978;2023-05-02T01:55:52;6.90;;;6.27;;
77276;SDS011;66330;52.166;9.978;2023-05-02T01:58:19;7.50;;;6.90;;
77276;SDS011;66330;52.166;9.978;2023-05-02T02:00:46;8.30;;;7.43;;
77276;SDS011;66330;52.166;9.978;2023-05-02T02:03:13;7.10;;;6.23;;
77276;SDS011;66330;52.166;9.978;2023-05-02T02:05:39;7.37;;;6.63;;
77276;SDS011;66330;52.166;9.978;2023-05-02T02:08:06;8.80;;;8.00;;
77276;SDS011;66330;52.166;9.978;2023-05-02T02:10:34;9.03;;;7.60;;
77276;SDS011;66330;52.166;9.978;2023-05-02T02:13:05;8.97;;;8.17;;
77276;SDS011;66330;52.166;9.978;2023-05-02T02:15:37;10.60;;;9.53;;
77276;SDS011;66330;52.166;9.978;2023-05-02T02:18:12;10.00;;;8.97;;
77276;SDS011;66330;52.166;9.978;2023-05-02T02:20:42;13.73;;;9.37;;
77276;SDS011;66330;52.166;9.978;2023-05-02T02:23:09;11.27;;;10.07;;
77276;SDS011;66330;52.166;9.978;2023-05-02T02:25:37;11.37;;;10.27;;
77276;SDS011;66330;52.166;9.978;2023-05-02T02:28:03;10.80;;;9.70;;
77276;SDS011;66330;52.166;9.978;2023-05-02T02:30:30;10.13;;;9.23;;
77276;SDS011;66330;52.166;9.978;2023-05-02T02:32:56;13.90;;;11.13;;
77276;SDS011;66330;52.166;9.978;2023-05-02T02:35:22;13.00;;;10.50;;
77276;SDS011;66330;52.166;9.978;2023-05-02T02:40:52;11.90;;;10.67;;
77276;SDS011;66330;52.166;9.978;2023-05-02T02:45:57;13.30;;;12.00;;
77276;SDS011;66330;52.166;9.978;2023-05-02T02:56:39;16.83;;;15.13;;
77276;SDS011;66330;52.166;9.978;2023-05-02T03:01:38;17.90;;;15.40;;
77276;SDS011;66330;52.166;9.978;2023-05-02T03:04:07;18.23;;;16.40;;
77276;SDS011;66330;52.166;9.978;2023-05-02T03:06:35;17.03;;;15.40;;
77276;SDS011;66330;52.166;9.978;2023-05-02T03:09:01;18.40;;;16.20;;
77276;SDS011;66330;52.166;9.978;2023-05-02T03:11:28;17.23;;;15.50;;
77276;SDS011;66330;52.166;9.978;2023-05-02T03:13:53;17.00;;;15.10;;
77276;SDS011;66330;52.166;9.978;2023-05-02T03:16:29;17.23;;;15.43;;
77276;SDS011;66330;52.166;9.978;2023-05-02T03:19:00;17.67;;;15.87;;
77276;SDS011;66330;52.166;9.978;2023-05-02T03:21:26;18.30;;;16.37;;
77276;SDS011;66330;52.166;9.978;2023-05-02T03:23:53;17.30;;;14.87;;
77276;SDS011;66330;52.166;9.978;2023-05-02T03:26:19;17.70;;;15.73;;
77276;SDS011;66330;52.166;9.978;2023-05-02T03:28:45;16.57;;;14.43;;
77276;SDS011;66330;52.166;9.978;2023-05-02T03:31:11;16.97;;;15.23;;
77276;SDS011;66330;52.166;9.978;2023-05-02T03:33:38;18.60;;;16.70;;
77276;SDS011;66330;52.166;9.978;2023-05-02T03:36:03;18.73;;;16.80;;
77276;SDS011;66330;52.166;9.978;2023-05-02T03:38:29;21.20;;;17.90;;
77276;SDS011;66330;52.166;9.978;2023-05-02T03:40:58;19.23;;;17.27;;
77276;SDS011;66330;52.166;9.978;2023-05-02T03:43:23;19.30;;;17.20;;
77276;SDS011;66330;52.166;9.978;2023-05-02T03:45:49;21.60;;;19.17;;
77276;SDS011;66330;52.166;9.978;2023-05-02T03:48:15;21.43;;;19.17;;
77276;SDS011;66330;52.166;9.978;2023-05-02T03:50:41;18.80;;;15.87;;
77276;SDS011;66330;52.166;9.978;2023-05-02T03:53:07;18.27;;;15.57;;
77276;SDS011;66330;52.166;9.978;2023-05-02T03:55:38;18.33;;;16.43;;
77276;SDS011;66330;52.166;9.978;2023-05-02T03:58:04;19.57;;;17.47;;
77276;SDS011;66330;52.166;9.978;2023-05-02T04:00:30;18.53;;;16.07;;
77276;SDS011;66330;52.166;9.978;2023-05-02T04:02:56;19.00;;;15.80;;
77276;SDS011;66330;52.166;9.978;2023-05-02T04:05:21;16.47;;;14.50;;
77276;SDS011;66330;52.166;9.978;2023-05-02T04:07:47;17.83;;;15.37;;
77276;SDS011;66330;52.166;9.978;2023-05-02T04:10:12;16.70;;;14.50;;
77276;SDS011;66330;52.166;9.978;2023-05-02T04:12:40;17.30;;;14.37;;
77276;SDS011;66330;52.166;9.978;2023-05-02T04:15:07;16.57;;;14.83;;
77276;SDS011;66330;52.166;9.978;2023-05-02T04:17:34;19.03;;;14.50;;
77276;SDS011;66330;52.166;9.978;2023-05-02T04:19:59;20.43;;;18.33;;
77276;SDS011;66330;52.166;9.978;2023-05-02T04:22:25;20.17;;;18.00;;
77276;SDS011;66330;52.166;9.978;2023-05-02T04:24:51;18.43;;;16.53;;
77276;SDS011;66330;52.166;9.978;2023-05-02T04:27:17;19.60;;;16.00;;
77276;SDS011;66330;52.166;9.978;2023-05-02T04:29:46;21.37;;;16.87;;
77276;SDS011;66330;52.166;9.978;2023-05-02T04:32:12;19.00;;;16.93;;
77276;SDS011;66330;52.166;9.978;2023-05-02T04:34:38;17.23;;;15.43;;
77276;SDS011;66330;52.166;9.978;2023-05-02T04:37:03;20.20;;;15.70;;
77276;SDS011;66330;52.166;9.978;2023-05-02T04:39:29;17.00;;;15.30;;
77276;SDS011;66330;52.166;9.978;2023-05-02T04:41:55;16.97;;;15.13;;
77276;SDS011;66330;52.166;9.978;2023-05-02T04:44:20;16.90;;;15.10;;
77276;SDS011;66330;52.166;9.978;2023-05-02T04:46:46;19.20;;;14.87;;
77276;SDS011;66330;52.166;9.978;2023-05-02T04:49:11;17.80;;;15.90;;
77276;SDS011;66330;52.166;9.978;2023-05-02T04:51:37;15.90;;;13.97;;
77276;SDS011;66330;52.166;9.978;2023-05-02T04:54:03;15.90;;;14.23;;
77276;SDS011;66330;52.166;9.978;2023-05-02T04:56:28;16.03;;;14.33;;
77276;SDS011;66330;52.166;9.978;2023-05-02T04:58:54;17.90;;;15.07;;
77276;SDS011;66330;52.166;9.978;2023-05-02T05:01:20;18.70;;;15.10;;
77276;SDS011;66330;52.166;9.978;2023-05-02T05:03:45;19.33;;;15.70;;
77276;SDS011;66330;52.166;9.978;2023-05-02T05:06:11;19.83;;;16.80;;
77276;SDS011;66330;52.166;9.978;2023-05-02T05:08:36;19.27;;;15.77;;
77276;SDS011;66330;52.166;9.978;2023-05-02T05:11:02;20.63;;;17.13;;
77276;SDS011;66330;52.166;9.978;2023-05-02T05:13:29;19.97;;;15.57;;
77276;SDS011;66330;52.166;9.978;2023-05-02T05:15:54;20.67;;;15.87;;
77276;SDS011;66330;52.166;9.978;2023-05-02T05:18:20;19.83;;;15.53;;
77276;SDS011;66330;52.166;9.978;2023-05-02T05:20:46;20.10;;;15.27;;
77276;SDS011;66330;52.166;9.978;2023-05-02T05:23:11;20.70;;;16.53;;
77276;SDS011;66330;52.166;9.978;2023-05-02T05:25:37;20.53;;;15.93;;
77276;SDS011;66330;52.166;9.978;2023-05-02T05:28:04;19.90;;;17.80;;
77276;SDS011;66330;52.166;9.978;2023-05-02T05:30:30;18.50;;;15.57;;
77276;SDS011;66330;52.166;9.978;2023-05-02T05:32:56;17.10;;;13.40;;
77276;SDS011;66330;52.166;9.978;2023-05-02T05:35:25;19.20;;;16.53;;
77276;SDS011;66330;52.166;9.978;2023-05-02T05:37:50;16.27;;;12.90;;
77276;SDS011;66330;52.166;9.978;2023-05-02T05:40:16;14.93;;;12.63;;
77276;SDS011;66330;52.166;9.978;2023-05-02T05:42:41;14.17;;;12.77;;
77276;SDS011;66330;52.166;9.978;2023-05-02T05:45:07;13.70;;;11.93;;
77276;SDS011;66330;52.166;9.978;2023-05-02T05:47:33;13.53;;;11.63;;
77276;SDS011;66330;52.166;9.978;2023-05-02T05:49:59;14.87;;;12.97;;
77276;SDS011;66330;52.166;9.978;2023-05-02T05:52:25;15.30;;;12.93;;
77276;SDS011;66330;52.166;9.978;2023-05-02T05:54:53;13.57;;;12.10;;
77276;SDS011;66330;52.166;9.978;2023-05-02T05:57:20;14.87;;;11.77;;
77276;SDS011;66330;52.166;9.978;2023-05-02T05:59:46;13.27;;;11.37;;
77276;SDS011;66330;52.166;9.978;2023-05-02T06:02:12;12.37;;;11.17;;
77276;SDS011;66330;52.166;9.978;2023-05-02T06:04:38;9.60;;;8.70;;
77276;SDS011;66330;52.166;9.978;2023-05-02T06:07:04;8.57;;;7.73;;
77276;SDS011;66330;52.166;9.978;2023-05-02T06:09:29;10.27;;;9.27;;
77276;SDS011;66330;52.166;9.978;2023-05-02T06:11:55;6.07;;;5.57;;
77276;SDS011;66330;52.166;9.978;2023-05-02T06:14:20;5.80;;;4.87;;
77276;SDS011;66330;52.166;9.978;2023-05-02T06:16:46;4.47;;;4.07;;
77276;SDS011;66330;52.166;9.978;2023-05-02T06:19:12;3.83;;;3.43;;
77276;SDS011;66330;52.166;9.978;2023-05-02T06:21:37;4.87;;;4.37;;
77276;SDS011;66330;52.166;9.978;2023-05-02T06:24:03;3.37;;;3.07;;
77276;SDS011;66330;52.166;9.978;2023-05-02T06:26:29;4.67;;;3.37;;
77276;SDS011;66330;52.166;9.978;2023-05-02T06:28:54;3.43;;;3.13;;
77276;SDS011;66330;52.166;9.978;2023-05-02T06:31:20;2.63;;;2.43;;
77276;SDS011;66330;52.166;9.978;2023-05-02T06:33:45;2.77;;;2.57;;
77276;SDS011;66330;52.166;9.978;2023-05-02T06:36:11;2.80;;;2.60;;
77276;SDS011;66330;52.166;9.978;2023-05-02T06:38:37;3.30;;;3.00;;
77276;SDS011;66330;52.166;9.978;2023-05-02T06:41:02;2.77;;;2.50;;
77276;SDS011;66330;52.166;9.978;2023-05-02T06:43:28;3.13;;;2.70;;
77276;SDS011;66330;52.166;9.978;2023-05-02T06:45:53;4.10;;;2.60;;
77276;SDS011;66330;52.166;9.978;2023-05-02T06:48:20;3.20;;;2.90;;
77276;SDS011;66330;52.166;9.978;2023-05-02T06:50:46;4.80;;;4.30;;
77276;SDS011;66330;52.166;9.978;2023-05-02T06:53:12;4.23;;;3.40;;
77276;SDS011;66330;52.166;9.978;2023-05-02T06:55:38;6.80;;;5.47;;
77276;SDS011;66330;52.166;9.978;2023-05-02T06:58:03;4.37;;;3.97;;
77276;SDS011;66330;52.166;9.978;2023-05-02T07:00:29;4.87;;;4.03;;
77276;SDS011;66330;52.166;9.978;2023-05-02T07:02:54;3.90;;;3.40;;
77276;SDS011;66330;52.166;9.978;2023-05-02T07:05:20;9.17;;;4.00;;
77276;SDS011;66330;52.166;9.978;2023-05-02T07:07:46;4.50;;;3.70;;
77276;SDS011;66330;52.166;9.978;2023-05-02T07:10:12;6.50;;;3.70;;
77276;SDS011;66330;52.166;9.978;2023-05-02T07:12:37;4.40;;;3.27;;
77276;SDS011;66330;52.166;9.978;2023-05-02T07:15:06;6.37;;;5.00;;
77276;SDS011;66330;52.166;9.978;2023-05-02T07:17:32;6.37;;;4.30;;
77276;SDS011;66330;52.166;9.978;2023-05-02T07:19:58;7.60;;;4.57;;
77276;SDS011;66330;52.166;9.978;2023-05-02T07:22:23;9.00;;;4.20;;
77276;SDS011;66330;52.166;9.978;2023-05-02T07:24:55;8.00;;;4.30;;
77276;SDS011;66330;52.166;9.978;2023-05-02T07:27:25;7.00;;;4.60;;
77276;SDS011;66330;52.166;9.978;2023-05-02T07:29:51;8.10;;;5.83;;
77276;SDS011;66330;52.166;9.978;2023-05-02T07:32:16;17.30;;;14.33;;
77276;SDS011;66330;52.166;9.978;2023-05-02T07:34:42;13.30;;;9.50;;
77276;SDS011;66330;52.166;9.978;2023-05-02T07:37:08;9.33;;;5.87;;
77276;SDS011;66330;52.166;9.978;2023-05-02T07:39:33;8.27;;;5.43;;
77276;SDS011;66330;52.166;9.978;2023-05-02T07:41:59;8.97;;;4.77;;
77276;SDS011;66330;52.166;9.978;2023-05-02T07:44:25;5.43;;;4.40;;
77276;SDS011;66330;52.166;9.978;2023-05-02T07:46:51;5.70;;;4.00;;
77276;SDS011;66330;52.166;9.978;2023-05-02T07:49:17;5.87;;;4.27;;
77276;SDS011;66330;52.166;9.978;2023-05-02T07:51:43;7.43;;;4.00;;
77276;SDS011;66330;52.166;9.978;2023-05-02T07:54:19;9.17;;;4.90;;
77276;SDS011;66330;52.166;9.978;2023-05-02T07:56:46;8.33;;;4.70;;
77276;SDS011;66330;52.166;9.978;2023-05-02T07:59:12;10.30;;;5.53;;
77276;SDS011;66330;52.166;9.978;2023-05-02T08:01:38;5.40;;;3.73;;
77276;SDS011;66330;52.166;9.978;2023-05-02T08:04:05;7.03;;;3.60;;
77276;SDS011;66330;52.166;9.978;2023-05-02T08:06:31;7.33;;;3.83;;
77276;SDS011;66330;52.166;9.978;2023-05-02T08:08:57;5.83;;;3.50;;
77276;SDS011;66330;52.166;9.978;2023-05-02T08:11:23;5.83;;;4.20;;
77276;SDS011;66330;52.166;9.978;2023-05-02T08:13:49;9.77;;;5.13;;
77276;SDS011;66330;52.166;9.978;2023-05-02T08:16:15;7.67;;;3.90;;
77276;SDS011;66330;52.166;9.978;2023-05-02T08:18:41;8.10;;;3.77;;
77276;SDS011;66330;52.166;9.978;2023-05-02T08:21:06;5.40;;;4.43;;
77276;SDS011;66330;52.166;9.978;2023-05-02T08:23:32;9.07;;;4.57;;
77276;SDS011;66330;52.166;9.978;2023-05-02T08:25:58;8.60;;;4.33;;
77276;SDS011;66330;52.166;9.978;2023-05-02T08:28:24;8.47;;;4.27;;
77276;SDS011;66330;52.166;9.978;2023-05-02T08:30:49;7.53;;;4.60;;
77276;SDS011;66330;52.166;9.978;2023-05-02T08:33:15;6.33;;;4.20;;
77276;SDS011;66330;52.166;9.978;2023-05-02T08:35:40;7.03;;;4.80;;
77276;SDS011;66330;52.166;9.978;2023-05-02T08:38:06;7.60;;;4.77;;
77276;SDS011;66330;52.166;9.978;2023-05-02T08:40:35;9.93;;;4.83;;
77276;SDS011;66330;52.166;9.978;2023-05-02T08:43:02;8.47;;;5.27;;
77276;SDS011;66330;52.166;9.978;2023-05-02T08:45:30;9.90;;;6.47;;
77276;SDS011;66330;52.166;9.978;2023-05-02T08:48:05;9.53;;;5.40;;
77276;SDS011;66330;52.166;9.978;2023-05-02T08:50:35;7.07;;;5.13;;
77276;SDS011;66330;52.166;9.978;2023-05-02T08:53:03;8.17;;;4.70;;
77276;SDS011;66330;52.166;9.978;2023-05-02T08:55:31;8.07;;;5.50;;
77276;SDS011;66330;52.166;9.978;2023-05-02T08:57:58;7.10;;;4.73;;
77276;SDS011;66330;52.166;9.978;2023-05-02T09:00:24;6.63;;;4.10;;
77276;SDS011;66330;52.166;9.978;2023-05-02T09:02:55;7.30;;;4.87;;
77276;SDS011;66330;52.166;9.978;2023-05-02T09:05:38;6.40;;;4.50;;
77276;SDS011;66330;52.166;9.978;2023-05-02T09:08:05;11.47;;;5.00;;
77276;SDS011;66330;52.166;9.978;2023-05-02T09:10:32;7.47;;;4.77;;
77276;SDS011;66330;52.166;9.978;2023-05-02T09:15:58;6.00;;;4.27;;
77276;SDS011;66330;52.166;9.978;2023-05-02T09:18:35;8.27;;;4.47;;
77276;SDS011;66330;52.166;9.978;2023-05-02T09:21:09;9.83;;;4.33;;
77276;SDS011;66330;52.166;9.978;2023-05-02T09:26:10;7.00;;;3.50;;
77276;SDS011;66330;52.166;9.978;2023-05-02T09:28:51;6.40;;;4.00;;
77276;SDS011;66330;52.166;9.978;2023-05-02T09:31:18;7.40;;;3.83;;
77276;SDS011;66330;52.166;9.978;2023-05-02T09:33:46;5.30;;;3.40;;
77276;SDS011;66330;52.166;9.978;2023-05-02T09:36:14;7.90;;;3.97;;
77276;SDS011;66330;52.166;9.978;2023-05-02T09:38:41;6.60;;;4.23;;
77276;SDS011;66330;52.166;9.978;2023-05-02T09:41:08;7.33;;;3.73;;
77276;SDS011;66330;52.166;9.978;2023-05-02T09:43:34;5.20;;;3.77;;
77276;SDS011;66330;52.166;9.978;2023-05-02T09:46:01;7.83;;;4.57;;
77276;SDS011;66330;52.166;9.978;2023-05-02T09:48:31;4.90;;;3.80;;
77276;SDS011;66330;52.166;9.978;2023-05-02T09:50:58;8.53;;;6.20;;
77276;SDS011;66330;52.166;9.978;2023-05-02T09:53:24;5.67;;;4.40;;
77276;SDS011;66330;52.166;9.978;2023-05-02T09:56:01;5.70;;;4.13;;
77276;SDS011;66330;52.166;9.978;2023-05-02T09:58:28;6.57;;;3.83;;
77276;SDS011;66330;52.166;9.978;2023-05-02T10:00:55;5.93;;;3.93;;
77276;SDS011;66330;52.166;9.978;2023-05-02T10:03:22;10.13;;;6.40;;
77276;SDS011;66330;52.166;9.978;2023-05-02T10:05:50;15.07;;;6.60;;
77276;SDS011;66330;52.166;9.978;2023-05-02T10:08:18;6.43;;;5.13;;
77276;SDS011;66330;52.166;9.978;2023-05-02T10:10:46;15.57;;;6.60;;
77276;SDS011;66330;52.166;9.978;2023-05-02T10:13:14;8.47;;;5.97;;
77276;SDS011;66330;52.166;9.978;2023-05-02T10:15:43;8.97;;;5.33;;
77276;SDS011;66330;52.166;9.978;2023-05-02T10:18:14;8.33;;;6.00;;
77276;SDS011;66330;52.166;9.978;2023-05-02T10:20:53;9.70;;;4.93;;
77276;SDS011;66330;52.166;9.978;2023-05-02T10:23:21;10.70;;;5.60;;
77276;SDS011;66330;52.166;9.978;2023-05-02T10:25:50;9.70;;;5.37;;
77276;SDS011;66330;52.166;9.978;2023-05-02T10:28:17;8.30;;;4.87;;
77276;SDS011;66330;52.166;9.978;2023-05-02T10:30:43;5.07;;;4.57;;
77276;SDS011;66330;52.166;9.978;2023-05-02T10:33:09;4.30;;;3.90;;
77276;SDS011;66330;52.166;9.978;2023-05-02T10:35:38;6.00;;;4.20;;
77276;SDS011;66330;52.166;9.978;2023-05-02T10:38:08;5.70;;;4.30;;
77276;SDS011;66330;52.166;9.978;2023-05-02T10:40:34;5.10;;;4.43;;
77276;SDS011;66330;52.166;9.978;2023-05-02T10:43:00;6.37;;;4.47;;
77276;SDS011;66330;52.166;9.978;2023-05-02T10:45:31;7.73;;;3.70;;
77276;SDS011;66330;52.166;9.978;2023-05-02T10:53:28;9.23;;;4.73;;
77276;SDS011;66330;52.166;9.978;2023-05-02T10:58:37;5.87;;;3.90;;
77276;SDS011;66330;52.166;9.978;2023-05-02T11:04:04;5.03;;;3.80;;
77276;SDS011;66330;52.166;9.978;2023-05-02T11:07:15;6.73;;;4.93;;
77276;SDS011;66330;52.166;9.978;2023-05-02T11:11:48;5.40;;;4.70;;
77276;SDS011;66330;52.166;9.978;2023-05-02T11:19:22;4.00;;;3.60;;
77276;SDS011;66330;52.166;9.978;2023-05-02T11:21:48;6.00;;;4.10;;
77276;SDS011;66330;52.166;9.978;2023-05-02T11:30:08;5.17;;;4.13;;
77276;SDS011;66330;52.166;9.978;2023-05-02T11:35:25;5.40;;;4.20;;
77276;SDS011;66330;52.166;9.978;2023-05-02T11:40:27;8.33;;;4.37;;
77276;SDS011;66330;52.166;9.978;2023-05-02T11:42:54;6.43;;;4.13;;
77276;SDS011;66330;52.166;9.978;2023-05-02T11:45:20;6.90;;;3.80;;
77276;SDS011;66330;52.166;9.978;2023-05-02T11:47:46;8.70;;;4.23;;
77276;SDS011;66330;52.166;9.978;2023-05-02T11:50:14;6.23;;;3.50;;
77276;SDS011;66330;52.166;9.978;2023-05-02T11:52:42;4.20;;;3.80;;
77276;SDS011;66330;52.166;9.978;2023-05-02T11:55:10;5.67;;;3.40;;
77276;SDS011;66330;52.166;9.978;2023-05-02T11:57:37;4.50;;;3.70;;
77276;SDS011;66330;52.166;9.978;2023-05-02T12:00:03;6.23;;;3.70;;
77276;SDS011;66330;52.166;9.978;2023-05-02T12:02:39;4.97;;;3.53;;
77276;SDS011;66330;52.166;9.978;2023-05-02T12:05:10;4.60;;;3.60;;
77276;SDS011;66330;52.166;9.978;2023-05-02T12:07:37;4.07;;;3.33;;
77276;SDS011;66330;52.166;9.978;2023-05-02T12:10:08;7.07;;;3.20;;
77276;SDS011;66330;52.166;9.978;2023-05-02T12:12:35;4.37;;;3.40;;
77276;SDS011;66330;52.166;9.978;2023-05-02T12:15:04;6.67;;;3.67;;
77276;SDS011;66330;52.166;9.978;2023-05-02T12:17:31;5.10;;;4.03;;
77276;SDS011;66330;52.166;9.978;2023-05-02T12:19:59;6.70;;;4.70;;
77276;SDS011;66330;52.166;9.978;2023-05-02T12:22:26;7.13;;;5.10;;
77276;SDS011;66330;52.166;9.978;2023-05-02T12:24:52;4.70;;;4.30;;
77276;SDS011;66330;52.166;9.978;2023-05-02T12:27:18;4.33;;;3.93;;
77276;SDS011;66330;52.166;9.978;2023-05-02T12:29:44;4.60;;;4.20;;
77276;SDS011;66330;52.166;9.978;2023-05-02T12:32:11;4.73;;;4.20;;
77276;SDS011;66330;52.166;9.978;2023-05-02T12:34:38;6.07;;;3.97;;
77276;SDS011;66330;52.166;9.978;2023-05-02T12:37:04;5.97;;;4.40;;
77276;SDS011;66330;52.166;9.978;2023-05-02T12:42:13;6.70;;;4.77;;
77276;SDS011;66330;52.166;9.978;2023-05-02T12:44:41;9.33;;;4.80;;
77276;SDS011;66330;52.166;9.978;2023-05-02T12:47:11;4.97;;;4.47;;
77276;SDS011;66330;52.166;9.978;2023-05-02T12:49:54;5.40;;;4.90;;
77276;SDS011;66330;52.166;9.978;2023-05-02T12:55:16;5.23;;;4.70;;
77276;SDS011;66330;52.166;9.978;2023-05-02T12:57:47;6.23;;;4.20;;
77276;SDS011;66330;52.166;9.978;2023-05-02T13:00:14;5.13;;;3.43;;
77276;SDS011;66330;52.166;9.978;2023-05-02T13:02:40;5.63;;;3.60;;
77276;SDS011;66330;52.166;9.978;2023-05-02T13:05:18;6.20;;;4.57;;
77276;SDS011;66330;52.166;9.978;2023-05-02T13:07:44;4.03;;;3.63;;
77276;SDS011;66330;52.166;9.978;2023-05-02T13:10:10;7.37;;;4.00;;
77276;SDS011;66330;52.166;9.978;2023-05-02T13:12:36;4.20;;;3.43;;
77276;SDS011;66330;52.166;9.978;2023-05-02T13:15:05;4.83;;;3.57;;
77276;SDS011;66330;52.166;9.978;2023-05-02T13:17:32;4.57;;;3.87;;
77276;SDS011;66330;52.166;9.978;2023-05-02T13:19:58;5.73;;;3.70;;
77276;SDS011;66330;52.166;9.978;2023-05-02T13:22:24;4.80;;;3.70;;
77276;SDS011;66330;52.166;9.978;2023-05-02T13:24:50;6.83;;;4.17;;
77276;SDS011;66330;52.166;9.978;2023-05-02T13:27:16;5.70;;;4.27;;
77276;SDS011;66330;52.166;9.978;2023-05-02T13:29:45;7.13;;;4.17;;
77276;SDS011;66330;52.166;9.978;2023-05-02T13:32:12;5.20;;;4.37;;
77276;SDS011;66330;52.166;9.978;2023-05-02T13:34:38;5.50;;;4.63;;
77276;SDS011;66330;52.166;9.978;2023-05-02T13:37:03;4.40;;;4.00;;
77276;SDS011;66330;52.166;9.978;2023-05-02T13:39:29;5.40;;;4.10;;
77276;SDS011;66330;52.166;9.978;2023-05-02T13:41:54;7.03;;;3.87;;
77276;SDS011;66330;52.166;9.978;2023-05-02T13:44:20;5.20;;;4.10;;
77276;SDS011;66330;52.166;9.978;2023-05-02T13:46:46;5.37;;;4.17;;
77276;SDS011;66330;52.166;9.978;2023-05-02T13:49:12;4.67;;;3.47;;
77276;SDS011;66330;52.166;9.978;2023-05-02T13:51:38;5.33;;;4.13;;
77276;SDS011;66330;52.166;9.978;2023-05-02T13:54:04;4.07;;;3.67;;
77276;SDS011;66330;52.166;9.978;2023-05-02T13:56:29;4.93;;;4.40;;
77276;SDS011;66330;52.166;9.978;2023-05-02T13:58:55;6.70;;;4.20;;
77276;SDS011;66330;52.166;9.978;2023-05-02T14:01:20;4.90;;;4.27;;
77276;SDS011;66330;52.166;9.978;2023-05-02T14:03:46;4.73;;;4.00;;
77276;SDS011;66330;52.166;9.978;2023-05-02T14:06:12;5.30;;;3.90;;
77276;SDS011;66330;52.166;9.978;2023-05-02T14:08:37;5.43;;;3.87;;
77276;SDS011;66330;52.166;9.978;2023-05-02T14:11:03;4.97;;;3.57;;
77276;SDS011;66330;52.166;9.978;2023-05-02T14:13:28;6.60;;;3.80;;
77276;SDS011;66330;52.166;9.978;2023-05-02T14:15:54;5.40;;;3.70;;
77276;SDS011;66330;52.166;9.978;2023-05-02T14:18:20;5.00;;;4.47;;
77276;SDS011;66330;52.166;9.978;2023-05-02T14:20:45;4.47;;;3.70;;
77276;SDS011;66330;52.166;9.978;2023-05-02T14:23:11;4.90;;;3.50;;
77276;SDS011;66330;52.166;9.978;2023-05-02T14:25:36;3.80;;;3.27;;
77276;SDS011;66330;52.166;9.978;2023-05-02T14:28:02;5.63;;;3.20;;
77276;SDS011;66330;52.166;9.978;2023-05-02T14:30:28;4.13;;;3.37;;
77276;SDS011;66330;52.166;9.978;2023-05-02T14:32:55;3.20;;;3.00;;
77276;SDS011;66330;52.166;9.978;2023-05-02T14:35:21;6.23;;;3.17;;
77276;SDS011;66330;52.166;9.978;2023-05-02T14:37:47;3.07;;;2.77;;
77276;SDS011;66330;52.166;9.978;2023-05-02T14:40:12;4.70;;;3.07;;
77276;SDS011;66330;52.166;9.978;2023-05-02T14:42:38;3.57;;;3.27;;
77276;SDS011;66330;52.166;9.978;2023-05-02T14:45:05;6.30;;;2.93;;
77276;SDS011;66330;52.166;9.978;2023-05-02T14:47:31;5.13;;;4.10;;
77276;SDS011;66330;52.166;9.978;2023-05-02T14:49:57;4.93;;;3.57;;
77276;SDS011;66330;52.166;9.978;2023-05-02T14:52:22;4.47;;;3.10;;
77276;SDS011;66330;52.166;9.978;2023-05-02T14:54:48;3.63;;;3.33;;
77276;SDS011;66330;52.166;9.978;2023-05-02T14:57:13;4.10;;;3.43;;
77276;SDS011;66330;52.166;9.978;2023-05-02T14:59:41;3.20;;;2.90;;
77276;SDS011;66330;52.166;9.978;2023-05-02T15:02:07;2.73;;;2.53;;
77276;SDS011;66330;52.166;9.978;2023-05-02T15:04:33;3.73;;;3.33;;
77276;SDS011;66330;52.166;9.978;2023-05-02T15:06:58;2.97;;;2.70;;
77276;SDS011;66330;52.166;9.978;2023-05-02T15:09:25;2.97;;;2.77;;
77276;SDS011;66330;52.166;9.978;2023-05-02T15:11:53;3.33;;;3.03;;
77276;SDS011;66330;52.166;9.978;2023-05-02T15:14:19;3.00;;;2.80;;
77276;SDS011;66330;52.166;9.978;2023-05-02T15:16:45;3.30;;;3.00;;
77276;SDS011;66330;52.166;9.978;2023-05-02T15:19:11;3.60;;;3.30;;
77276;SDS011;66330;52.166;9.978;2023-05-02T15:21:36;4.93;;;3.60;;
77276;SDS011;66330;52.166;9.978;2023-05-02T15:24:02;3.43;;;3.00;;
77276;SDS011;66330;52.166;9.978;2023-05-02T15:26:28;3.23;;;3.00;;
77276;SDS011;66330;52.166;9.978;2023-05-02T15:28:54;2.67;;;2.53;;
77276;SDS011;66330;52.166;9.978;2023-05-02T15:31:20;4.90;;;3.13;;
77276;SDS011;66330;52.166;9.978;2023-05-02T15:33:46;5.60;;;2.97;;
77276;SDS011;66330;52.166;9.978;2023-05-02T15:36:11;3.37;;;3.17;;
77276;SDS011;66330;52.166;9.978;2023-05-02T15:38:38;2.70;;;2.20;;
77276;SDS011;66330;52.166;9.978;2023-05-02T15:41:06;2.77;;;2.57;;
77276;SDS011;66330;52.166;9.978;2023-05-02T15:43:32;3.97;;;2.80;;
77276;SDS011;66330;52.166;9.978;2023-05-02T15:45:58;2.73;;;2.20;;